Latest Weather Observations for Roebourne Airport

IDW60801

Issued at 5:02 am WST Thursday 18 December 2014 (issued every 30 minutes, with the page automatically refreshed every 10 minutes)

About weather observations | Map of weather stations | Latest weather observations for WA | Other Formats
Station Details ID: 004090 Name: ROEBOURNE AERO Lat: -20.76 Lon: 117.16 Height: 10.7 m
Data from the previous 72 hours. | See also: Recent months at Roebourne Airport
Date/Time
WST
Temp
°C
App
Temp
°C
Dew
Point
Rel
Hum
%
Delta-T
°C
Wind Press
QNH
hPa
Press
MSL
hPa
Rain
since 9 am
mm
Dir
 
Spd
km/h
Gust
km/h
Spd
kts
Gust
kts
18/05:00am 25.5 27.4 22.8 85 1.8 W 17 22 9 12 1005.8 1005.8 0.0
18/04:30am 25.4 27.5 22.5 84 2.0 WNW 15 20 8 11 1005.7 1005.7 0.0
18/04:00am 25.5 27.6 22.4 83 2.1 WNW 15 19 8 10 1005.5 1005.5 0.0
18/03:30am 25.6 28.0 22.3 82 2.2 WNW 13 19 7 10 1005.4 1005.4 0.0
18/03:00am 25.8 27.5 22.3 81 2.4 WNW 17 20 9 11 1005.5 1005.5 0.0
18/02:30am 25.9 27.4 22.0 79 2.6 WNW 17 20 9 11 1005.5 1005.5 0.0
18/02:00am 26.0 27.4 21.9 78 2.7 WNW 17 20 9 11 1005.6 1005.6 0.0
18/01:30am 26.2 27.9 21.6 76 3.1 W 15 20 8 11 1005.7 1005.7 0.0
18/01:00am 26.5 28.2 21.7 75 3.2 WNW 15 20 8 11 1006.1 1006.1 0.0
18/12:30am 26.6 27.2 21.1 72 3.6 NW 19 24 10 13 1006.1 1006.1 0.0
18/12:00am 26.9 27.6 21.2 71 3.8 WNW 19 26 10 14 1006.4 1006.4 0.0
 
Date/Time
WST
Temp
°C
App
Temp
°C
Dew
Point
Rel
Hum
%
Delta-T
°C
Wind Press
QNH
hPa
Press
MSL
hPa
Rain
since 9 am
mm
Dir
 
Spd
km/h
Gust
km/h
Spd
kts
Gust
kts
17/11:30pm 27.1 27.8 21.2 70 3.9 NW 19 24 10 13 1006.5 1006.5 0.0
17/11:00pm 27.2 28.7 21.2 69 4.0 WNW 15 19 8 10 1006.7 1006.7 0.0
17/10:30pm 27.3 28.3 21.1 69 4.1 NW 17 24 9 13 1006.6 1006.6 0.0
17/10:00pm 27.4 28.0 21.0 68 4.2 NW 19 22 10 12 1006.5 1006.5 0.0
17/09:30pm 27.6 28.1 20.9 67 4.4 NW 19 24 10 13 1006.2 1006.2 0.0
17/09:00pm 27.9 28.3 20.7 65 4.8 NW 19 24 10 13 1006.0 1006.0 0.0
17/08:30pm 28.2 28.5 20.7 63 5.0 NW 20 26 11 14 1005.7 1005.7 0.0
17/08:00pm 28.4 28.4 20.9 64 5.0 WNW 22 32 12 17 1005.2 1005.2 0.0
17/07:30pm 28.5 27.9 21.3 65 4.8 NW 26 33 14 18 1004.5 1004.5 0.0
17/07:00pm 29.0 28.6 21.0 62 5.3 WNW 24 32 13 17 1004.1 1004.0 0.0
17/06:30pm 29.6 27.5 20.5 58 6.0 NW 32 39 17 21 1003.7 1003.6 0.0
17/06:00pm 30.6 28.0 19.9 52 7.1 NW 33 43 18 23 1003.5 1003.4 0.0
17/05:30pm 32.1 29.3 19.0 45 8.6 NW 32 39 17 21 1003.2 1003.1 0.0
17/05:00pm 33.4 29.0 16.7 36 10.6 NW 35 43 19 23 1002.8 1002.7 0.0
17/04:30pm 34.9 30.9 16.2 32 11.8 NW 32 39 17 21 1002.4 1002.3 0.0
17/04:00pm 34.8 30.8 17.5 35 11.2 NW 35 43 19 23 1002.2 1002.1 0.0
17/03:30pm 35.2 31.5 18.3 36 11.0 NW 35 44 19 24 1002.2 1002.1 0.0
17/03:00pm 35.5 32.9 19.8 39 10.5 NW 33 41 18 22 1002.5 1002.4 0.0
17/02:30pm 35.6 33.2 19.9 39 10.5 NW 32 43 17 23 1002.9 1002.8 0.0
17/02:00pm 35.6 33.8 21.5 44 9.6 NW 33 39 18 21 1003.1 1003.0 0.0
17/01:30pm 36.3 35.6 22.5 45 9.5 NW 30 39 16 21 1003.4 1003.3 0.0
17/01:00pm 35.6 34.5 21.8 44 9.5 NNW 30 39 16 21 1003.6 1003.5 0.0
17/12:30pm 36.9 36.8 21.5 41 10.5 WNW 24 37 13 20 1003.8 1003.7 0.0
17/12:00pm 36.0 36.2 21.4 42 10.0 NW 22 33 12 18 1004.1 1004.0 0.0
17/11:30am 36.7 36.9 22.1 43 10.0 NW 24 33 13 18 1004.3 1004.2 0.0
17/11:00am 35.3 35.6 20.4 41 10.0 WNW 19 28 10 15 1004.7 1004.7 0.0
17/10:30am 34.5 35.4 20.8 44 9.2 WNW 17 30 9 16 1004.9 1004.9 0.0
17/10:00am 33.5 33.9 21.0 48 8.4 W 20 30 11 16 1005.1 1005.1 0.0
17/09:30am 33.3 34.7 21.8 51 7.8 W 17 30 9 16 1005.5 1005.5 0.0
17/09:00am 32.0 31.9 19.9 48 8.0 W 20 30 11 16 1005.8 1005.8 0.0
17/08:30am 31.0 30.4 19.7 51 7.4 W 22 30 12 16 1005.8 1005.8 0.0
17/08:00am 29.5 29.3 21.2 61 5.6 W 24 30 13 16 1005.9 1005.9 0.0
17/07:30am 28.4 28.7 22.2 69 4.2 W 24 33 13 18 1006.0 1006.0 0.0
17/07:00am 27.0 27.4 22.4 76 3.1 W 24 32 13 17 1005.9 1005.9 0.0
17/06:30am 26.2 27.5 22.3 79 2.6 W 19 26 10 14 1005.6 1005.6 0.0
17/06:00am 25.2 27.0 21.9 82 2.2 W 15 20 8 11 1005.4 1005.4 0.0
17/05:30am 24.8 26.1 21.7 83 2.1 W 17 26 9 14 1004.8 1004.8 0.0
17/05:00am 24.8 25.5 21.5 82 2.2 W 20 28 11 15 1004.6 1004.6 0.0
17/04:30am 24.9 25.8 21.6 82 2.2 W 19 24 10 13 1004.6 1004.6 0.0
17/04:00am 25.0 26.3 21.7 82 2.2 W 17 22 9 12 1004.7 1004.7 0.0
17/03:30am 25.1 26.4 21.6 81 2.3 WNW 17 22 9 12 1004.7 1004.7 0.0
17/03:00am 25.1 25.7 21.4 80 2.5 WNW 20 26 11 14 1004.5 1004.5 0.0
17/02:30am 25.2 25.9 21.5 80 2.5 WNW 20 26 11 14 1004.8 1004.8 0.0
17/02:00am 25.2 26.1 21.5 80 2.5 WNW 19 26 10 14 1005.2 1005.2 0.0
17/01:30am 25.3 26.6 21.6 80 2.5 WNW 17 22 9 12 1005.5 1005.5 0.0
17/01:00am 25.4 26.6 21.5 79 2.6 W 17 20 9 11 1006.0 1006.0 0.0
17/12:30am 25.6 26.6 21.7 79 2.6 WNW 19 22 10 12 1006.3 1006.3 0.0
17/12:00am 25.7 26.6 21.6 78 2.7 WNW 19 22 10 12 1006.7 1006.7 0.0
 
Date/Time
WST
Temp
°C
App
Temp
°C
Dew
Point
Rel
Hum
%
Delta-T
°C
Wind Press
QNH
hPa
Press
MSL
hPa
Rain
since 9 am
mm
Dir
 
Spd
km/h
Gust
km/h
Spd
kts
Gust
kts
16/11:30pm 25.9 26.8 21.6 77 2.9 W 19 22 10 12 1007.1 1007.1 0.0
16/11:00pm 26.1 26.8 21.5 76 3.1 W 20 24 11 13 1007.2 1007.2 0.0
16/10:30pm 26.3 26.9 21.3 74 3.3 W 20 28 11 15 1007.3 1007.3 0.0
16/10:00pm 26.6 26.9 20.7 70 3.9 WNW 20 30 11 16 1007.1 1007.1 0.0
16/09:30pm 27.0 27.1 20.3 66 4.4 WNW 20 33 11 18 1006.8 1006.8 0.0
16/09:00pm 27.2 26.6 19.8 64 4.8 WNW 22 28 12 15 1006.5 1006.5 0.0
16/08:30pm 27.5 26.6 19.0 59 5.5 W 22 30 12 16 1006.1 1006.1 0.0
16/08:00pm 27.8 26.8 19.6 61 5.3 WNW 24 33 13 18 1005.7 1005.7 0.0
16/07:30pm 28.2 25.8 19.1 57 5.9 WNW 30 37 16 20 1005.2 1005.2 0.0
16/07:00pm 28.5 27.0 20.2 60 5.5 WNW 28 35 15 19 1004.8 1004.8 0.0
16/06:30pm 29.0 27.6 20.4 59 5.7 WNW 28 33 15 18 1004.5 1004.5 0.0
16/06:00pm 29.8 27.7 20.6 57 6.1 WNW 32 39 17 21 1004.3 1004.2 0.0
16/05:30pm 31.2 28.7 20.2 52 7.3 NW 33 46 18 25 1004.2 1004.1 0.0
16/05:00pm 31.6 28.5 19.6 49 7.9 NW 35 43 19 23 1004.3 1004.2 0.0
16/04:30pm 32.0 29.4 19.9 48 8.0 WNW 33 43 18 23 1004.3 1004.2 0.0
16/04:00pm 33.0 30.5 19.8 45 8.8 NW 32 43 17 23 1004.4 1004.4 0.0
16/03:30pm 33.7 31.4 20.1 44 9.1 NW 32 43 17 23 1004.7 1004.7 0.0
16/03:00pm 34.2 32.3 20.2 43 9.4 WNW 30 39 16 21 1005.0 1005.0 0.0
16/02:30pm 34.7 33.2 19.5 40 10.1 WNW 26 35 14 19 1005.0 1005.0 0.0
16/02:00pm 34.9 33.5 19.7 41 10.1 WNW 26 35 14 19 1005.3 1005.3 0.0
16/01:30pm 34.6 33.7 20.6 44 9.4 NW 26 39 14 21 1005.4 1005.4 0.0
16/01:00pm 33.9 33.0 20.6 45 8.9 NW 26 35 14 19 1005.6 1005.6 0.0
16/12:30pm 34.3 34.2 21.4 47 8.7 NW 24 33 13 18 1005.8 1005.8 0.0
16/12:00pm 34.0 33.4 20.4 45 9.1 NW 24 35 13 19 1005.8 1005.8 0.0
16/11:30am 33.7 32.8 19.0 42 9.6 WNW 22 37 12 20 1006.3 1006.3 0.0
16/11:00am 33.1 33.1 20.9 48 8.2 NW 22 30 12 16 1006.7 1006.7 0.0
16/10:30am 32.7 33.4 21.2 50 7.7 WNW 19 33 10 18 1007.1 1007.1 0.0
16/10:00am 31.9 32.5 21.1 52 7.3 WNW 19 26 10 14 1007.3 1007.3 0.0
16/09:30am 31.2 31.5 20.8 54 6.9 WNW 20 39 11 21 1007.4 1007.4 0.0
16/09:00am 30.8 31.2 21.0 56 6.6 WNW 20 30 11 16 1007.5 1007.5 0.0
16/08:30am 29.9 30.5 21.3 60 5.8 NW 20 28 11 15 1007.7 1007.7 0.0
16/08:00am 28.7 29.1 21.7 66 4.7 W 22 28 12 15 1007.7 1007.7 0.0
16/07:30am 27.8 28.7 21.6 69 4.1 WNW 19 24 10 13 1007.6 1007.6 0.0
16/07:00am 27.3 28.2 21.6 71 3.8 W 19 28 10 15 1007.3 1007.3 0.0
16/06:30am 26.9 27.6 21.6 72 3.5 W 20 24 11 13 1007.1 1007.1 0.0
16/06:00am 26.6 27.6 21.8 75 3.2 WNW 19 24 10 13 1006.7 1006.7 0.0
16/05:30am 26.4 27.4 21.8 76 3.1 WNW 19 26 10 14 1006.4 1006.4 0.0
16/05:00am 26.3 27.6 21.7 76 3.1 WNW 17 20 9 11 1006.0 1006.0 0.0
16/04:30am 26.1 27.6 22.0 78 2.7 WNW 17 20 9 11 1005.9 1005.9 0.0
16/04:00am 26.0 28.4 22.3 80 2.5 W 13 17 7 9 1005.9 1005.9 0.0
16/03:30am 26.1 28.7 22.6 81 2.4 WNW 13 15 7 8 1005.6 1005.6 0.0
16/03:00am 25.7 28.2 22.4 82 2.2 NW 13 17 7 9 1005.5 1005.5 0.0
16/02:30am 24.7 27.2 21.0 80 2.4 WNW 9 9 5 5 1005.5 1005.5 0.0
16/02:00am 25.0 27.5 21.1 79 2.6 WNW 9 11 5 6 1005.6 1005.6 0.0
16/01:30am 25.3 27.7 21.6 80 2.5 WNW 11 13 6 7 1006.0 1006.0 0.0
16/01:00am 25.4 27.5 21.7 80 2.5 NW 13 17 7 9 1006.1 1006.1 0.0
16/12:30am 25.6 26.9 21.7 79 2.6 WNW 17 20 9 11 1006.3 1006.3 0.0
16/12:00am 25.8 26.8 21.7 78 2.7 W 19 24 10 13 1006.7 1006.7 0.0
 
Date/Time
WST
Temp
°C
App
Temp
°C
Dew
Point
Rel
Hum
%
Delta-T
°C
Wind Press
QNH
hPa
Press
MSL
hPa
Rain
since 9 am
mm
Dir
 
Spd
km/h
Gust
km/h
Spd
kts
Gust
kts
15/11:30pm 25.9 26.9 21.8 78 2.7 WNW 19 24 10 13 1007.1 1007.1 0.0
15/11:00pm 26.2 27.0 21.8 77 2.9 W 20 28 11 15 1007.3 1007.3 0.0
15/10:30pm 26.4 26.0 21.6 75 3.2 W 26 32 14 17 1007.2 1007.2 0.0
15/10:00pm 26.7 26.2 21.5 73 3.5 W 26 32 14 17 1007.2 1007.2 0.0
15/09:30pm 27.0 26.7 21.1 70 3.9 WNW 24 32 13 17 1006.9 1006.9 0.0
15/09:00pm 27.3 26.1 20.1 64 4.7 WNW 26 33 14 18 1006.5 1006.5 0.0
15/08:30pm 27.6 27.1 19.9 63 5.0 WNW 22 32 12 17 1006.2 1006.2 0.0
15/08:00pm 27.7 26.2 20.3 64 4.9 WNW 28 32 15 17 1005.9 1005.9 0.0
15/07:30pm 28.2 26.7 20.2 62 5.3 WNW 28 35 15 19 1005.7 1005.7 0.0
15/07:00pm 28.7 28.2 19.9 59 5.8 WNW 22 30 12 16 1005.6 1005.6 0.0
15/06:30pm 29.3 27.0 19.3 55 6.5 NW 30 37 16 20 1005.4 1005.4 0.0
15/06:00pm 30.4 27.3 18.5 49 7.7 NW 32 39 17 21 1005.0 1005.0 0.0
15/05:30pm 30.9 27.7 18.6 48 8.0 WNW 33 41 18 22 1004.7 1004.7 0.0
15/05:00pm 32.1 29.3 19.4 47 8.4 NW 33 44 18 24 1004.7 1004.7 0.0
15/04:30pm 32.9 29.8 19.7 45 8.7 NW 35 43 19 23 1004.6 1004.6 0.0
15/04:00pm 34.2 30.3 17.0 36 11.0 NW 33 41 18 22 1004.5 1004.5 0.0
15/03:30pm 35.2 32.8 19.9 40 10.2 NW 32 41 17 22 1004.7 1004.7 0.0
15/03:00pm 35.2 31.3 17.9 36 11.3 NW 35 46 19 25 1004.8 1004.8 0.0
15/02:30pm 36.7 33.7 18.7 34 11.9 NW 32 39 17 21 1005.1 1005.1 0.0
15/02:00pm 36.6 33.6 18.6 34 11.9 NW 32 39 17 21 1005.3 1005.3 0.0
15/01:30pm 37.2 34.4 17.2 30 12.9 WNW 28 39 15 21 1005.5 1005.5 0.0
15/01:00pm 37.6 34.1 15.4 27 14.1 WNW 28 39 15 21 1005.6 1005.6 0.0
15/12:30pm 37.5 34.3 16.4 28 13.5 NW 28 39 15 21 1005.7 1005.7 0.0
15/12:00pm 37.3 35.5 17.8 31 12.7 WNW 24 37 13 20 1006.1 1006.1 0.0
15/11:30am 36.6 34.9 18.2 34 12.0 WNW 24 33 13 18 1006.6 1006.6 0.0
15/11:00am 35.9 35.3 18.5 36 11.4 WNW 19 32 10 17 1007.0 1007.0 0.0
15/10:30am 34.5 34.8 20.5 44 9.4 WNW 19 30 10 16 1007.6 1007.6 0.0
15/10:00am 34.2 35.1 20.9 45 9.0 W 17 26 9 14 1007.8 1007.8 0.0
15/09:30am 33.4 34.9 21.2 48 8.2 W 15 24 8 13 1008.3 1008.3 0.0
15/09:00am 32.0 32.1 20.3 50 7.8 W 20 33 11 18 1008.7 1008.7 0.0
15/08:30am 30.6 30.9 20.5 54 6.7 W 19 24 10 13 1008.3 1008.3 0.0
15/08:00am 29.0 30.2 21.5 64 5.0 W 17 28 9 15 1008.4 1008.4 0.0
15/07:30am 28.3 29.0 21.6 67 4.5 W 20 28 11 15 1008.8 1008.8 0.0
15/07:00am 27.4 27.9 21.9 72 3.7 W 22 30 12 16 1008.4 1008.4 0.0
15/06:30am 26.6 27.5 22.0 76 3.1 W 20 28 11 15 1008.4 1008.4 0.0
15/06:00am 26.0 27.2 22.1 79 2.6 W 19 22 10 12 1008.0 1008.0 0.0
15/05:30am 25.7 26.8 22.0 80 2.5 W 19 24 10 13 1008.0 1008.0 0.0

Other Formats:

Comma delimited format used in spreadsheet applications
http://www.bom.gov.au/fwo/IDW60801/IDW60801.94308.axf

JavaScript Object Notation format (JSON) in row-major order
http://www.bom.gov.au/fwo/IDW60801/IDW60801.94308.json